METAR Data
IDs: Format: Raw Decoded Include TAF

Data at: 0119 UTC 21 Sep 2021

KEMT 210045Z 19009KT 10SM CLR 29/11 A2988
No TAF found for KEMT

KPOC 210047Z 25009KT 10SM CLR 29/12 A2991
No TAF found for KPOC

KFUL 210053Z VRB03KT 10SM CLR 26/15 A2987 RMK AO2 SLP115 T02560150
No TAF found for KFUL

KBUR 210053Z 18007KT 10SM CLR 27/12 A2988 RMK AO2 SLP107 T02720117 $

KBUR 202334Z 2100/2124 16011KT P6SM SKC
  FM210300 13005KT P6SM SKC
  FM210800 VRB03KT P6SM SKC
  FM212100 17010KT P6SM SKC


KONT 210053Z 25011KT 10SM CLR 31/12 A2989 RMK AO2 SLP105 T03110117

KONT 202324Z 2100/2206 26011KT P6SM SKC
  FM210400 VRB04KT P6SM SKC
  FM212000 26011KT P6SM SKC
  FM220400 VRB04KT P6SM SKC


KCNO 210053Z 27012KT 10SM CLR 30/13 A2989 RMK AO2 SLP115 T03000133
No TAF found for KCNO

KLGB 210053Z AUTO 21006KT 10SM CLR 22/16 A2989 RMK AO2 SLP120 T02220161

KLGB 202334Z 2100/2124 29008KT P6SM SKC
  FM210400 VRB03KT P6SM SKC
  FM211000 15005KT 5SM HZ SCT007
  FM211700 19007KT P6SM SKC


KLAX 210053Z 27008KT 10SM FEW010 22/17 A2989 RMK AO2 SLP121 T02170167

KLAX 202334Z 2100/2206 26011KT P6SM SKC
  FM210300 25005KT P6SM SKC
  FM210500 VRB03KT P6SM SKC
  FM211000 09005KT 4SM HZ SCT004
  FM211800 26010KT P6SM SKC
  FM220400 VRB03KT P6SM SKC


KCMA 210055Z 20006KT 10SM CLR 23/16 A2989 RMK AO2 SLP129 T02280156

KCMA 202334Z 2100/2124 23008KT P6SM SKC
  FM210300 VRB03KT P6SM SKC
  FM211000 07006KT 5SM HZ SKC
  FM211700 16010KT P6SM SKC
  FM212000 24008KT P6SM SKC


KOXR 210051Z 28006KT 10SM CLR 22/16 A2989 RMK AO2 SLP121 T02170161

KOXR 202334Z 2100/2124 25008KT P6SM SKC
  FM210300 VRB03KT P6SM SKC
  FM210900 VRB03KT 1SM BR BKN004
  FM211600 12008KT 5SM HZ SKC
  FM212000 24009KT P6SM SKC